Time;durP1;ratioP1;P1;durP2;ratioP2;P2;SDS_P1;SDS_P2;PMS_P1;PMS_P2;Temp;Humidity;BMP_temperature;BMP_pressure;BME280_temperature;BME280_humidity;BME280_pressure;Samples;Min_cycle;Max_cycle;Signal;HPM_P1;HPM_P2
2024/02/06 00:00:08;;;;;;;7.20;1.50;;;;;;;9.13;52.71;97744.72;6131516;29;20283;-57
2024/02/06 00:03:11;;;;;;;4.17;1.53;;;;;;;9.06;50.49;97749.31;6134538;29;20704;-57
2024/02/06 00:06:13;;;;;;;6.97;1.63;;;;;;;9.02;50.81;97735.72;6132248;29;20200;-58
2024/02/06 00:09:15;;;;;;;5.43;1.83;;;;;;;9.09;52.65;97745.41;6130526;29;20200;-57
2024/02/06 00:12:17;;;;;;;3.53;1.50;;;;;;;9.08;51.42;97727.84;6127198;29;20619;-57
2024/02/06 00:15:20;;;;;;;2.87;1.43;;;;;;;9.41;50.22;97741.38;6137973;29;20200;-55
2024/02/06 00:18:22;;;;;;;6.07;1.50;;;;;;;9.43;50.40;97738.47;6130879;29;20680;-57
2024/02/06 00:21:24;;;;;;;5.07;1.53;;;;;;;9.87;47.95;97734.34;6135274;29;20573;-58
2024/02/06 00:24:27;;;;;;;4.60;1.30;;;;;;;9.51;50.49;97704.38;6133633;29;20581;-58
2024/02/06 00:27:29;;;;;;;4.13;2.20;;;;;;;9.73;47.34;97735.66;6140243;28;20699;-58
2024/02/06 00:30:31;;;;;;;7.07;2.30;;;;;;;9.71;48.53;97725.25;6133728;29;20205;-58
2024/02/06 00:33:33;;;;;;;6.60;1.33;;;;;;;9.89;47.52;97716.28;6137106;29;20202;-57
2024/02/06 00:36:35;;;;;;;3.10;1.60;;;;;;;9.61;50.63;97724.25;6139182;29;20237;-58
2024/02/06 00:39:37;;;;;;;8.30;2.20;;;;;;;9.25;52.36;97710.97;6126059;29;20197;-57
2024/02/06 00:42:40;;;;;;;3.37;1.50;;;;;;;9.13;53.51;97718.16;6133900;29;20668;-57
2024/02/06 00:45:42;;;;;;;6.40;1.77;;;;;;;9.29;49.53;97698.81;6135508;29;20206;-57
2024/02/06 00:48:44;;;;;;;6.30;2.00;;;;;;;9.45;49.39;97720.44;6141898;28;20544;-56
2024/02/06 00:51:46;;;;;;;10.93;2.00;;;;;;;9.25;51.59;97724.25;6134813;29;20192;-58
2024/02/06 00:54:48;;;;;;;6.23;1.70;;;;;;;9.36;51.08;97719.16;6138677;29;20201;-57
2024/02/06 00:57:50;;;;;;;6.50;1.67;;;;;;;9.10;52.38;97717.78;6136750;29;20212;-55
2024/02/06 01:00:53;;;;;;;3.73;1.60;;;;;;;8.91;51.91;97723.19;6136672;29;20212;-57
2024/02/06 01:03:56;;;;;;;5.80;1.90;;;;;;;9.54;49.73;97709.19;6141102;29;20199;-57
2024/02/06 01:06:58;;;;;;;7.13;1.70;;;;;;;10.06;48.20;97703.06;6129077;29;20372;-58
2024/02/06 01:10:00;;;;;;;7.23;2.00;;;;;;;10.29;45.98;97705.63;6129683;29;20210;-58
2024/02/06 01:13:03;;;;;;;5.50;2.10;;;;;;;10.59;43.76;97708.03;6137311;29;20204;-57
2024/02/06 01:16:07;;;;;;;5.40;1.80;;;;;;;11.06;42.92;97725.53;6140337;29;20210;-57
2024/02/06 01:19:09;;;;;;;6.27;2.20;;;;;;;11.21;43.30;97685.78;6132594;29;20232;-56
2024/02/06 01:22:12;;;;;;;4.40;1.70;;;;;;;11.51;39.73;97661.38;6133813;29;20214;-56
2024/02/06 01:25:14;;;;;;;5.10;2.07;;;;;;;11.49;41.76;97700.03;6141549;29;20208;-57
2024/02/06 01:28:17;;;;;;;5.20;1.70;;;;;;;11.19;42.50;97695.09;6133731;29;20338;-58
2024/02/06 01:31:19;;;;;;;7.53;1.83;;;;;;;11.16;42.32;97684.91;6133048;29;20563;-57
2024/02/06 01:34:22;;;;;;;3.93;1.57;;;;;;;11.61;39.42;97692.69;6129604;29;20229;-58
2024/02/06 01:37:24;;;;;;;6.63;2.13;;;;;;;11.60;40.98;97694.56;6134967;29;20206;-58
2024/02/06 01:40:26;;;;;;;7.87;1.60;;;;;;;11.51;40.44;97682.69;6140160;28;20710;-58
2024/02/06 01:43:29;;;;;;;6.03;2.03;;;;;;;11.62;40.00;97687.13;6140133;29;20769;-56
2024/02/06 01:46:31;;;;;;;4.57;2.03;;;;;;;11.90;39.57;97684.53;6137097;28;20197;-58
2024/02/06 01:49:35;;;;;;;7.83;2.17;;;;;;;11.85;38.49;97661.25;6136426;29;20740;-57
2024/02/06 01:52:38;;;;;;;6.43;1.43;;;;;;;11.75;40.63;97664.59;6145910;29;20331;-58
2024/02/06 01:55:41;;;;;;;5.23;1.80;;;;;;;11.53;42.75;97680.63;6133711;29;20703;-57
2024/02/06 01:58:44;;;;;;;6.67;1.57;;;;;;;11.13;44.09;97667.50;6133366;29;20684;-57
2024/02/06 02:01:48;;;;;;;4.37;1.43;;;;;;;10.75;44.31;97655.00;6143329;29;20226;-58
2024/02/06 02:04:50;;;;;;;4.70;1.30;;;;;;;11.16;42.37;97674.22;6139460;29;20616;-56
2024/02/06 02:07:53;;;;;;;7.33;1.80;;;;;;;11.54;40.35;97655.53;6139173;29;20256;-58
2024/02/06 02:10:55;;;;;;;6.30;1.93;;;;;;;11.93;39.10;97652.00;6141191;29;20201;-58
2024/02/06 02:13:57;;;;;;;6.57;1.40;;;;;;;11.67;41.95;97653.53;6143589;29;20602;-58
2024/02/06 02:16:59;;;;;;;7.67;1.50;;;;;;;11.28;44.01;97646.41;6132502;29;20942;-56
2024/02/06 02:20:02;;;;;;;7.43;1.57;;;;;;;10.97;44.00;97639.84;6138287;29;20205;-58
2024/02/06 02:23:04;;;;;;;4.93;1.53;;;;;;;10.45;47.48;97644.66;6141895;29;20203;-58
2024/02/06 02:26:23;;;;;;;4.13;1.40;;;;;;;10.48;44.48;97621.00;6138185;29;20211;-58
2024/02/06 02:29:27;;;;;;;4.57;1.30;;;;;;;10.36;47.02;97630.13;6139519;29;20670;-57
2024/02/06 02:32:30;;;;;;;6.17;1.70;;;;;;;10.25;44.90;97631.81;6136523;29;20199;-58
2024/02/06 02:35:32;;;;;;;2.57;1.53;;;;;;;10.35;46.36;97631.19;6134888;28;20280;-58
2024/02/06 02:38:37;;;;;;;5.97;1.60;;;;;;;10.10;47.75;97624.34;6139442;29;20202;-58
2024/02/06 02:41:39;;;;;;;5.70;1.80;;;;;;;10.09;46.80;97634.16;6135359;29;20338;-58
2024/02/06 02:44:41;;;;;;;6.97;1.40;;;;;;;9.72;46.92;97617.00;6137419;29;20204;-57
2024/02/06 02:47:46;;;;;;;6.53;1.83;;;;;;;9.87;46.61;97619.94;6135490;29;20215;-56
2024/02/06 02:50:48;;;;;;;6.47;1.47;;;;;;;9.91;45.81;97623.75;6142795;28;20231;-58
2024/02/06 02:53:51;;;;;;;8.37;1.90;;;;;;;10.85;43.40;97625.81;6140002;29;20201;-58
2024/02/06 02:56:56;;;;;;;3.13;1.77;;;;;;;10.98;41.41;97619.31;6139023;29;20214;-56
2024/02/06 02:59:58;;;;;;;4.33;1.80;;;;;;;10.93;43.26;97608.59;6128348;29;20565;-57
2024/02/06 03:03:01;;;;;;;5.97;1.57;;;;;;;10.53;46.02;97629.06;6138940;29;20214;-58
2024/02/06 03:06:03;;;;;;;5.47;2.00;;;;;;;10.30;45.10;97629.25;6143111;29;20209;-58
2024/02/06 03:09:05;;;;;;;5.43;1.43;;;;;;;10.48;43.96;97609.53;6135831;29;20562;-57
2024/02/06 03:12:08;;;;;;;3.33;1.53;;;;;;;11.01;43.12;97618.84;6139593;29;20197;-58
2024/02/06 03:15:10;;;;;;;7.97;1.83;;;;;;;11.34;41.17;97610.75;6131693;29;20836;-57
2024/02/06 03:18:12;;;;;;;7.73;1.40;;;;;;;11.10;43.62;97612.03;6137376;29;20224;-58
2024/02/06 03:21:14;;;;;;;6.47;1.63;;;;;;;11.36;39.70;97605.16;6140246;29;20682;-57
2024/02/06 03:24:16;;;;;;;5.67;1.80;;;;;;;11.74;39.05;97609.59;6139113;29;20198;-58
2024/02/06 03:27:19;;;;;;;6.03;1.80;;;;;;;11.72;41.87;97618.91;6135948;29;20255;-58
2024/02/06 03:30:22;;;;;;;6.77;1.90;;;;;;;11.49;39.78;97612.00;6131088;29;20203;-57
2024/02/06 03:33:27;;;;;;;6.13;1.57;;;;;;;11.33;42.27;97609.16;6137651;29;20202;-58
2024/02/06 03:36:29;;;;;;;3.40;1.40;;;;;;;10.94;44.29;97619.03;6138373;29;20662;-57
2024/02/06 03:39:31;;;;;;;4.87;1.87;;;;;;;10.67;43.11;97624.22;6142158;29;20237;-58
2024/02/06 03:42:33;;;;;;;9.23;1.70;;;;;;;10.75;43.32;97615.81;6140114;29;20675;-58
2024/02/06 03:45:36;;;;;;;2.33;1.50;;;;;;;10.81;44.53;97606.84;6135929;29;20644;-57
2024/02/06 03:48:38;;;;;;;4.73;1.50;;;;;;;10.50;45.49;97612.78;6141409;28;20194;-58
2024/02/06 03:51:40;;;;;;;4.90;1.77;;;;;;;10.50;45.17;97624.22;6136991;29;20209;-58
2024/02/06 03:54:42;;;;;;;7.87;1.60;;;;;;;10.44;44.96;97606.56;6132639;29;20273;-58
2024/02/06 03:57:45;;;;;;;3.93;1.70;;;;;;;10.40;45.55;97617.94;6136624;29;20229;-56
2024/02/06 04:00:50;;;;;;;6.07;1.57;;;;;;;10.83;42.22;97627.91;6138821;29;20577;-56
2024/02/06 04:03:52;;;;;;;5.93;1.90;;;;;;;10.62;44.67;97600.16;6128266;29;20213;-58
2024/02/06 04:06:54;;;;;;;8.13;1.63;;;;;;;10.33;45.02;97607.44;6136749;29;20208;-57
2024/02/06 04:09:57;;;;;;;6.87;2.30;;;;;;;10.41;44.31;97600.91;6140932;29;20200;-58
2024/02/06 04:12:59;;;;;;;8.23;2.07;;;;;;;10.53;44.06;97597.09;6135982;29;20691;-58
2024/02/06 04:16:04;;;;;;;6.70;2.27;;;;;;;10.93;43.98;97598.72;6137774;29;20208;-57
2024/02/06 04:19:06;;;;;;;3.63;1.67;;;;;;;10.81;43.04;97579.41;6131035;29;20205;-56
2024/02/06 04:22:08;;;;;;;4.57;1.93;;;;;;;10.79;43.63;97582.31;6133189;29;20327;-58
2024/02/06 04:25:10;;;;;;;5.50;1.87;;;;;;;10.43;44.84;97567.66;6133229;28;20202;-57
2024/02/06 04:28:12;;;;;;;6.20;1.80;;;;;;;10.22;46.11;97573.69;6138137;29;20198;-56
2024/02/06 04:31:15;;;;;;;8.63;1.77;;;;;;;9.95;47.19;97584.13;6141832;29;20226;-58
2024/02/06 04:34:17;;;;;;;5.90;2.10;;;;;;;9.72;45.95;97574.44;6134726;29;20260;-56
2024/02/06 04:37:20;;;;;;;3.90;1.90;;;;;;;9.58;46.80;97573.91;6127477;29;20565;-59
2024/02/06 04:40:22;;;;;;;5.97;2.00;;;;;;;9.37;49.43;97579.91;6133462;29;20281;-56
2024/02/06 04:43:25;;;;;;;3.13;1.30;;;;;;;9.15;51.00;97569.06;6133625;29;20208;-57
2024/02/06 04:46:27;;;;;;;3.93;1.60;;;;;;;8.82;51.93;97564.41;6129476;29;20658;-56
2024/02/06 04:49:29;;;;;;;5.57;1.37;;;;;;;8.58;52.36;97556.47;6138820;29;20269;-58
2024/02/06 04:52:32;;;;;;;4.90;1.40;;;;;;;8.28;52.55;97543.28;6137443;29;20196;-58
2024/02/06 04:55:41;;;;;;;3.40;1.53;;;;;;;8.29;53.54;97544.91;6133199;29;20814;-55
2024/02/06 04:58:43;;;;;;;4.20;1.53;;;;;;;8.33;51.53;97553.22;6122040;29;20982;-58
2024/02/06 05:01:46;;;;;;;5.70;1.50;;;;;;;8.60;49.17;97541.09;6135590;29;20211;-56
2024/02/06 05:04:48;;;;;;;4.17;1.40;;;;;;;8.90;50.45;97556.06;6133683;29;20199;-57
2024/02/06 05:07:51;;;;;;;3.10;1.30;;;;;;;10.17;45.90;97555.78;6127733;29;20547;-57
2024/02/06 05:10:53;;;;;;;13.13;1.80;;;;;;;10.31;42.97;97553.63;6138771;29;20199;-55
2024/02/06 05:13:56;;;;;;;4.67;1.83;;;;;;;10.23;46.97;97556.66;6139183;28;20195;-56
2024/02/06 05:16:58;;;;;;;5.77;1.80;;;;;;;9.98;46.80;97536.56;6137569;29;20597;-58
2024/02/06 05:20:04;;;;;;;4.70;1.10;;;;;;;9.80;45.90;97534.13;6146204;29;20196;-58
2024/02/06 05:23:07;;;;;;;5.97;1.47;;;;;;;10.08;44.79;97544.72;6140856;29;20215;-57
2024/02/06 05:26:09;;;;;;;4.40;1.47;;;;;;;10.19;44.78;97535.03;6137925;29;20226;-58
2024/02/06 05:29:11;;;;;;;3.93;1.60;;;;;;;10.38;45.20;97519.63;6144325;29;20580;-57
2024/02/06 05:32:14;;;;;;;4.03;1.63;;;;;;;10.57;43.72;97526.31;6140656;29;20262;-56
2024/02/06 05:35:16;;;;;;;4.23;1.13;;;;;;;10.26;45.30;97535.72;6140162;29;20878;-56
2024/02/06 05:38:19;;;;;;;3.00;1.43;;;;;;;9.83;48.87;97538.97;6139051;28;20204;-56
2024/02/06 05:41:21;;;;;;;4.47;1.50;;;;;;;10.24;44.06;97527.16;6142072;29;20197;-58
2024/02/06 05:44:23;;;;;;;3.57;1.73;;;;;;;10.48;43.57;97527.78;6135813;29;20245;-56
2024/02/06 05:47:26;;;;;;;4.03;1.50;;;;;;;10.84;41.21;97523.75;6138185;29;20339;-57
2024/02/06 05:50:29;;;;;;;5.73;1.40;;;;;;;10.86;43.11;97526.16;6141040;28;20242;-58
2024/02/06 05:53:35;;;;;;;2.97;1.27;;;;;;;10.40;44.92;97498.91;6138596;29;20199;-56
2024/02/06 05:56:37;;;;;;;4.37;1.23;;;;;;;10.40;46.06;97517.56;6143419;29;20209;-58
2024/02/06 05:59:40;;;;;;;4.97;1.23;;;;;;;10.26;45.16;97509.09;6138488;29;20190;-57
2024/02/06 06:02:42;;;;;;;2.93;1.50;;;;;;;10.15;46.18;97503.81;6135208;29;20225;-56
2024/02/06 06:05:44;;;;;;;3.50;1.33;;;;;;;10.20;43.67;97503.91;6134200;29;20694;-56
2024/02/06 06:08:47;;;;;;;5.00;1.40;;;;;;;10.08;45.96;97494.16;6138326;28;20210;-56
2024/02/06 06:11:49;;;;;;;4.47;1.60;;;;;;;9.83;46.51;97512.38;6130746;29;20446;-57
2024/02/06 06:14:51;;;;;;;4.83;1.90;;;;;;;10.05;47.18;97510.63;6142492;28;20201;-58
2024/02/06 06:17:54;;;;;;;4.83;1.50;;;;;;;10.54;42.79;97505.50;6131763;29;20213;-56
2024/02/06 06:20:56;;;;;;;4.40;1.33;;;;;;;10.58;44.03;97503.94;6138204;29;20209;-58
2024/02/06 06:27:52;;;;;;;5.40;1.60;;;;;;;10.44;44.66;97504.53;5988147;26;20245;-57
2024/02/06 06:31:58;;;;;;;2.87;1.07;;;;;;;10.07;44.32;97481.09;6160848;28;20206;-58
2024/02/06 06:35:17;;;;;;;5.20;1.30;;;;;;;10.15;45.63;97488.69;6164842;28;20200;-57
2024/02/06 06:38:25;;;;;;;4.40;1.23;;;;;;;10.40;43.37;97485.59;6166888;28;20185;-57
2024/02/06 06:41:28;;;;;;;4.37;1.40;;;;;;;10.58;42.47;97505.81;6160435;28;20208;-56
2024/02/06 06:44:31;;;;;;;2.20;1.50;;;;;;;11.41;40.81;97490.53;6160011;28;20734;-56
2024/02/06 06:47:33;;;;;;;5.33;1.30;;;;;;;11.28;40.65;97478.41;6157617;28;20288;-58
2024/02/06 06:50:36;;;;;;;3.20;1.30;;;;;;;11.76;39.21;97491.91;6144497;28;20256;-57
2024/02/06 06:53:38;;;;;;;6.10;1.40;;;;;;;11.69;40.15;97486.81;6143235;28;20611;-56
2024/02/06 06:56:40;;;;;;;2.13;1.30;;;;;;;11.87;38.44;97467.78;6159308;28;20285;-58
2024/02/06 06:59:43;;;;;;;2.57;1.00;;;;;;;11.94;39.70;97490.78;6160787;28;20209;-58
2024/02/06 07:02:45;;;;;;;3.03;1.70;;;;;;;11.90;38.34;97476.31;6163171;28;20562;-58
2024/02/06 07:05:51;;;;;;;2.27;0.97;;;;;;;11.97;38.75;97476.91;6157872;28;20198;-57
2024/02/06 07:08:53;;;;;;;5.17;1.47;;;;;;;12.00;38.32;97477.19;6161115;28;20205;-57
2024/02/06 07:11:56;;;;;;;3.87;1.10;;;;;;;11.94;38.90;97477.44;6165560;28;20579;-57
2024/02/06 07:14:59;;;;;;;2.90;1.03;;;;;;;12.02;40.41;97483.09;6139201;28;20558;-58
2024/02/06 07:18:01;;;;;;;2.77;0.90;;;;;;;11.92;40.72;97483.03;6157941;28;20350;-58
2024/02/06 07:21:04;;;;;;;4.80;1.50;;;;;;;12.51;36.91;97487.41;6158571;28;20662;-57
2024/02/06 07:24:06;;;;;;;3.13;1.10;;;;;;;12.70;36.60;97482.44;6162410;28;20565;-58
2024/02/06 07:27:12;;;;;;;1.80;1.27;;;;;;;12.72;36.32;97499.84;6168543;28;20240;-57
2024/02/06 07:30:15;;;;;;;2.33;1.00;;;;;;;12.60;36.57;97512.59;6160590;28;20569;-58
2024/02/06 07:33:31;;;;;;;3.73;1.10;;;;;;;12.43;37.74;97511.97;6159733;28;20201;-58
2024/02/06 07:36:34;;;;;;;3.10;1.10;;;;;;;12.52;37.03;97519.25;6157185;28;20205;-58
2024/02/06 07:39:38;;;;;;;3.70;1.43;;;;;;;12.11;39.23;97500.25;6162600;28;20222;-57
2024/02/06 07:42:40;;;;;;;1.77;1.00;;;;;;;12.07;38.82;97501.03;6154368;28;20785;-58
2024/02/06 07:45:43;;;;;;;1.90;1.00;;;;;;;12.19;38.78;97511.53;6160457;28;20191;-58
2024/02/06 07:48:45;;;;;;;3.23;1.10;;;;;;;12.30;39.12;97491.84;6158661;28;20186;-58
2024/02/06 07:51:47;;;;;;;4.30;1.30;;;;;;;12.32;38.37;97484.38;6163824;28;20229;-58
2024/02/06 07:54:51;;;;;;;3.27;1.43;;;;;;;12.46;36.39;97503.41;6159733;28;20281;-57
2024/02/06 07:57:53;;;;;;;3.23;1.03;;;;;;;12.44;36.00;97505.56;6155921;28;20277;-58
2024/02/06 08:00:55;;;;;;;1.40;0.70;;;;;;;12.74;38.08;97527.09;6153253;28;20286;-56
2024/02/06 08:03:58;;;;;;;3.90;0.83;;;;;;;12.83;35.06;97525.56;6164269;28;20863;-57
2024/02/06 08:07:05;;;;;;;3.00;1.13;;;;;;;12.81;35.61;97522.34;6161043;28;20659;-58
2024/02/06 08:10:08;;;;;;;2.47;0.90;;;;;;;12.78;37.54;97544.22;6163859;28;20198;-57
2024/02/06 08:13:11;;;;;;;4.03;1.10;;;;;;;12.93;36.39;97532.81;6158069;28;20663;-59
2024/02/06 08:16:15;;;;;;;3.90;0.87;;;;;;;12.82;35.61;97528.50;6159585;28;20610;-58
2024/02/06 08:19:17;;;;;;;4.43;1.10;;;;;;;12.89;36.16;97537.88;6160767;28;20205;-58
2024/02/06 08:22:20;;;;;;;2.63;0.93;;;;;;;12.84;37.43;97529.03;6162497;28;20325;-58
2024/02/06 08:25:23;;;;;;;3.33;1.17;;;;;;;12.89;36.21;97529.84;6166614;28;20234;-58
2024/02/06 08:28:25;;;;;;;5.23;1.30;;;;;;;12.77;37.58;97533.81;6159562;28;20205;-57
2024/02/06 08:31:27;;;;;;;2.67;1.50;;;;;;;12.92;36.50;97541.91;6162403;28;20315;-57
2024/02/06 08:34:30;;;;;;;2.77;0.90;;;;;;;12.92;37.34;97536.56;6158164;28;20198;-57
2024/02/06 08:37:32;;;;;;;1.97;1.10;;;;;;;12.84;36.64;97532.50;6158666;28;20191;-57
2024/02/06 08:40:35;;;;;;;3.90;1.27;;;;;;;12.96;36.24;97542.19;6162104;28;20337;-58
2024/02/06 08:43:38;;;;;;;3.47;1.20;;;;;;;12.87;36.53;97525.84;6161703;28;20209;-55
2024/02/06 08:46:53;;;;;;;1.73;1.27;;;;;;;12.55;36.88;97526.72;6162072;28;20203;-55
2024/02/06 08:49:56;;;;;;;2.77;1.10;;;;;;;12.74;36.81;97528.97;6165676;28;20719;-57
2024/02/06 08:52:59;;;;;;;2.40;1.10;;;;;;;12.71;35.94;97540.16;6171518;28;20198;-57
2024/02/06 08:56:02;;;;;;;3.63;1.40;;;;;;;12.66;37.99;97524.94;6160850;28;20240;-58
2024/02/06 08:59:04;;;;;;;2.97;1.20;;;;;;;12.56;35.91;97522.19;6168170;28;20282;-55
2024/02/06 09:02:08;;;;;;;3.23;1.30;;;;;;;12.50;37.31;97544.59;6158203;28;20282;-56
2024/02/06 09:05:10;;;;;;;3.50;1.10;;;;;;;12.46;36.40;97530.13;6166600;28;20195;-57
2024/02/06 09:08:13;;;;;;;3.20;1.33;;;;;;;12.54;36.84;97535.81;6166082;28;20231;-57
2024/02/06 09:11:17;;;;;;;3.17;1.60;;;;;;;12.62;36.66;97537.19;6161090;28;20201;-58
2024/02/06 09:14:19;;;;;;;2.30;1.20;;;;;;;12.44;36.53;97533.06;6162438;28;20229;-56
2024/02/06 09:17:22;;;;;;;3.77;1.20;;;;;;;12.38;37.28;97555.47;6159336;28;20681;-57
2024/02/06 09:20:24;;;;;;;2.37;1.10;;;;;;;12.34;38.03;97549.81;6158910;28;20222;-57
2024/02/06 09:23:26;;;;;;;3.57;1.80;;;;;;;12.27;36.99;97529.75;6156621;28;20210;-55
2024/02/06 09:26:29;;;;;;;4.20;1.23;;;;;;;12.31;38.61;97584.25;6165731;28;20244;-57
2024/02/06 09:29:31;;;;;;;4.87;1.23;;;;;;;12.13;37.71;97580.91;6163428;28;20206;-58
2024/02/06 09:32:34;;;;;;;5.63;1.30;;;;;;;12.13;37.87;97564.91;6162662;28;20190;-55
2024/02/06 09:35:36;;;;;;;4.60;1.43;;;;;;;11.97;38.35;97579.19;6160285;28;20673;-58
2024/02/06 09:38:39;;;;;;;5.57;1.50;;;;;;;11.95;38.08;97553.78;6163191;28;20280;-56
2024/02/06 09:41:45;;;;;;;1.43;1.00;;;;;;;11.92;40.06;97570.28;6156364;28;20575;-57
2024/02/06 09:44:47;;;;;;;3.53;1.60;;;;;;;11.93;40.56;97566.59;6159588;28;20206;-58
2024/02/06 09:47:50;;;;;;;4.60;1.53;;;;;;;11.89;39.21;97576.97;6159198;28;20202;-56
2024/02/06 09:50:56;;;;;;;3.07;1.27;;;;;;;11.98;37.74;97583.47;6159798;28;20232;-56
2024/02/06 09:53:59;;;;;;;3.23;1.57;;;;;;;11.99;39.47;97568.25;6163563;28;20213;-57
2024/02/06 09:57:03;;;;;;;3.30;1.20;;;;;;;12.02;39.12;97591.75;6161496;28;20203;-58
2024/02/06 10:00:10;;;;;;;4.13;1.20;;;;;;;11.97;39.53;97595.19;6164557;28;20198;-56
2024/02/06 10:03:34;;;;;;;5.43;1.23;;;;;;;12.03;37.72;97585.38;6164791;28;20219;-57
2024/02/06 10:06:37;;;;;;;6.67;1.60;;;;;;;11.91;38.16;97598.84;6164442;28;20202;-58
2024/02/06 10:09:41;;;;;;;2.53;1.47;;;;;;;11.81;38.39;97562.16;6162782;28;20198;-58
2024/02/06 10:12:47;;;;;;;5.53;1.73;;;;;;;11.84;38.04;97580.38;6168481;28;20195;-58
2024/02/06 10:15:50;;;;;;;3.93;1.50;;;;;;;11.78;39.17;97600.03;6159721;28;20651;-58
2024/02/06 10:18:53;;;;;;;5.43;1.53;;;;;;;11.96;37.62;97590.09;6168484;28;20198;-57
2024/02/06 10:21:56;;;;;;;4.43;1.23;;;;;;;11.83;38.59;97594.78;6161463;28;20198;-58
2024/02/06 10:25:04;;;;;;;4.17;1.50;;;;;;;11.75;39.00;97586.38;6164969;28;20649;-57
2024/02/06 10:28:06;;;;;;;3.73;1.43;;;;;;;11.61;39.85;97585.97;6165522;28;20567;-58
2024/02/06 10:31:10;;;;;;;4.03;1.90;;;;;;;11.56;39.73;97581.38;6164488;28;20205;-56
2024/02/06 10:34:14;;;;;;;2.70;1.27;;;;;;;11.43;40.57;97579.13;6168581;28;20191;-58
2024/02/06 10:37:18;;;;;;;6.63;1.40;;;;;;;11.30;40.82;97566.97;6160661;28;20565;-56
2024/02/06 10:40:21;;;;;;;4.10;1.80;;;;;;;11.42;40.25;97561.47;6165588;28;20226;-56
2024/02/06 10:43:30;;;;;;;3.57;1.27;;;;;;;11.42;39.98;97566.81;6155617;28;20209;-58
2024/02/06 10:47:05;;;;;;;6.30;1.67;;;;;;;11.31;40.56;97554.44;6161949;28;20197;-58
2024/02/06 10:50:10;;;;;;;5.00;1.30;;;;;;;11.35;41.16;97556.34;6169595;28;20631;-58
2024/02/06 10:53:12;;;;;;;6.17;1.50;;;;;;;11.33;41.09;97541.66;6157003;28;20209;-55
2024/02/06 10:56:18;;;;;;;4.20;1.23;;;;;;;11.34;41.78;97532.59;6164589;28;20742;-57
2024/02/06 10:59:25;;;;;;;2.20;1.53;;;;;;;11.31;41.59;97533.09;6158220;28;20678;-57
2024/02/06 11:02:33;;;;;;;3.80;1.40;;;;;;;11.39;43.04;97538.00;6161916;28;20317;-58
2024/02/06 11:05:52;;;;;;;3.27;1.37;;;;;;;11.22;43.05;97518.59;6164663;28;20582;-57
2024/02/06 11:09:04;;;;;;;3.13;1.57;;;;;;;11.40;41.69;97520.94;6159367;28;20203;-56
2024/02/06 11:12:09;;;;;;;4.27;1.87;;;;;;;11.47;42.05;97536.72;6155370;28;20612;-58
2024/02/06 11:15:22;;;;;;;3.57;1.30;;;;;;;11.44;41.47;97554.06;6165490;28;20484;-57
2024/02/06 11:18:33;;;;;;;4.53;1.87;;;;;;;11.42;42.64;97536.69;6161053;28;20197;-58
2024/02/06 11:21:42;;;;;;;3.67;1.63;;;;;;;11.40;42.40;97544.94;6162931;28;20208;-58
2024/02/06 11:24:46;;;;;;;5.97;1.50;;;;;;;11.44;44.55;97519.38;6158564;28;20209;-58
2024/02/06 11:27:50;;;;;;;4.23;1.47;;;;;;;11.53;42.29;97536.56;6166654;28;20304;-58
2024/02/06 11:30:59;;;;;;;5.17;2.00;;;;;;;11.47;43.44;97526.06;6154214;28;20337;-57
2024/02/06 11:34:17;;;;;;;3.13;1.60;;;;;;;11.47;43.31;97531.41;6161926;28;20228;-58
2024/02/06 11:37:28;;;;;;;5.20;1.67;;;;;;;11.59;42.54;97522.19;6167777;28;20681;-56
2024/02/06 11:40:32;;;;;;;4.03;1.30;;;;;;;11.64;43.19;97532.13;6158035;28;20206;-58
2024/02/06 11:43:34;;;;;;;3.67;1.80;;;;;;;11.66;43.18;97534.53;6133531;28;20694;-58
2024/02/06 11:46:47;;;;;;;8.03;2.20;;;;;;;11.65;43.32;97551.59;6162178;28;20662;-57
2024/02/06 11:49:51;;;;;;;3.80;1.80;;;;;;;11.70;42.96;97541.78;6158752;28;20213;-58
2024/02/06 11:53:04;;;;;;;4.87;1.90;;;;;;;11.78;42.38;97530.66;6156065;28;20202;-54
2024/02/06 11:56:08;;;;;;;6.27;1.90;;;;;;;11.81;42.84;97545.34;6157202;28;20213;-57
2024/02/06 11:59:11;;;;;;;3.00;1.63;;;;;;;11.93;42.68;97535.34;6162031;28;20200;-57
2024/02/06 12:02:13;;;;;;;5.07;2.07;;;;;;;11.97;43.24;97536.47;6162713;28;20198;-58
2024/02/06 12:05:16;;;;;;;4.00;1.90;;;;;;;12.08;43.10;97548.84;6166043;28;20439;-56
2024/02/06 12:08:24;;;;;;;4.40;1.77;;;;;;;12.07;42.59;97535.75;6152836;28;20194;-56
2024/02/06 12:11:35;;;;;;;6.57;2.10;;;;;;;12.19;42.80;97522.22;6155253;28;20253;-58
2024/02/06 12:14:38;;;;;;;3.03;1.80;;;;;;;12.20;43.60;97527.28;6161446;28;20347;-57
2024/02/06 12:17:45;;;;;;;4.07;2.20;;;;;;;12.17;43.90;97554.53;6162737;28;20193;-56
2024/02/06 12:20:47;;;;;;;4.67;2.47;;;;;;;12.13;43.12;97518.69;6163457;28;20316;-57
2024/02/06 12:24:03;;;;;;;4.17;2.40;;;;;;;11.91;44.21;97525.97;6155682;28;20213;-57
2024/02/06 12:27:08;;;;;;;5.10;2.37;;;;;;;11.88;44.40;97540.66;6162571;28;20918;-57
2024/02/06 12:30:21;;;;;;;5.33;1.90;;;;;;;11.90;44.13;97519.03;6166139;28;20237;-58
2024/02/06 12:33:23;;;;;;;5.77;2.53;;;;;;;11.90;45.33;97484.34;6157427;28;20667;-57
2024/02/06 12:36:26;;;;;;;6.73;2.33;;;;;;;11.93;44.34;97511.34;6155239;28;20197;-57
2024/02/06 12:39:30;;;;;;;4.57;2.40;;;;;;;11.98;44.60;97508.69;6163243;28;20199;-56
2024/02/06 12:42:32;;;;;;;4.73;2.40;;;;;;;11.83;44.50;97513.91;6163965;28;20662;-58
2024/02/06 12:45:35;;;;;;;6.30;2.37;;;;;;;11.96;45.84;97526.81;6161981;28;20277;-57
2024/02/06 12:48:37;;;;;;;3.97;2.20;;;;;;;11.74;44.77;97504.72;6162028;28;20654;-58
2024/02/06 12:51:40;;;;;;;3.90;2.13;;;;;;;11.70;44.97;97531.09;6155261;28;20208;-58
2024/02/06 12:54:42;;;;;;;5.10;2.17;;;;;;;11.75;45.94;97515.13;6158723;28;20824;-57
2024/02/06 12:57:51;;;;;;;4.60;2.57;;;;;;;11.55;45.83;97510.41;6166562;28;20225;-56
2024/02/06 13:00:58;;;;;;;5.83;2.80;;;;;;;11.46;46.36;97501.25;6160900;28;20213;-58
2024/02/06 13:04:00;;;;;;;6.37;2.70;;;;;;;11.35;46.72;97500.34;6164086;28;20225;-57
2024/02/06 13:07:03;;;;;;;6.60;2.80;;;;;;;11.37;47.46;97518.75;6164878;28;20230;-57
2024/02/06 13:10:08;;;;;;;6.60;2.97;;;;;;;11.25;48.69;97502.09;6160614;28;20193;-57
2024/02/06 13:13:11;;;;;;;5.20;2.40;;;;;;;11.29;48.31;97511.22;6158657;28;20209;-58
2024/02/06 13:16:14;;;;;;;9.67;2.73;;;;;;;11.09;48.23;97507.25;6160736;28;20198;-58
2024/02/06 13:19:23;;;;;;;7.43;2.80;;;;;;;10.96;48.31;97498.84;6163174;28;20657;-58
2024/02/06 13:22:26;;;;;;;5.70;2.57;;;;;;;11.02;47.95;97505.84;6159228;28;20277;-58
2024/02/06 13:25:28;;;;;;;8.40;2.90;;;;;;;10.93;49.00;97510.78;6145475;28;20250;-57
2024/02/06 13:28:30;;;;;;;7.70;2.40;;;;;;;10.94;48.74;97506.28;6155022;28;20218;-58
2024/02/06 13:31:32;;;;;;;7.10;2.63;;;;;;;11.00;49.34;97500.75;6158253;28;20232;-59
2024/02/06 13:34:38;;;;;;;6.23;2.83;;;;;;;10.76;49.22;97494.06;6165133;28;20193;-56
2024/02/06 13:37:40;;;;;;;6.77;2.93;;;;;;;10.90;48.97;97489.19;6160647;28;20198;-57
2024/02/06 13:40:43;;;;;;;5.43;2.47;;;;;;;10.80;49.59;97500.50;6161408;28;20193;-57
2024/02/06 13:43:45;;;;;;;4.40;2.47;;;;;;;10.87;49.80;97501.13;6158101;28;20217;-57
2024/02/06 13:58:34;;;;;;;6.90;3.00;;;;;;;10.93;49.80;97489.47;6354318;27;20537;-56
2024/02/06 14:01:36;;;;;;;8.03;3.03;;;;;;;10.83;50.41;97508.78;6350918;28;20542;-56
2024/02/06 14:04:41;;;;;;;4.63;2.60;;;;;;;10.65;50.00;97493.13;6324299;28;20196;-58
2024/02/06 14:07:45;;;;;;;5.20;3.20;;;;;;;10.56;50.42;97502.59;6349686;28;20344;-57
2024/02/06 14:10:48;;;;;;;6.87;3.07;;;;;;;10.54;50.49;97484.19;6356459;28;20557;-57
2024/02/06 14:13:51;;;;;;;5.60;2.53;;;;;;;10.56;50.25;97500.72;6360886;28;20672;-58
2024/02/06 14:16:53;;;;;;;7.30;2.47;;;;;;;10.51;50.45;97497.19;6352769;28;20233;-56
2024/02/06 14:19:56;;;;;;;7.50;3.40;;;;;;;10.42;50.86;97506.66;6360396;28;20733;-54
2024/02/06 14:22:59;;;;;;;5.80;2.87;;;;;;;10.39;51.56;97494.63;6348427;28;20190;-58
2024/02/06 14:26:04;;;;;;;5.53;2.50;;;;;;;10.25;51.71;97504.03;6347630;28;20210;-55
2024/02/06 14:29:06;;;;;;;8.83;2.63;;;;;;;10.21;52.53;97502.88;6357208;28;20199;-58
2024/02/06 14:32:08;;;;;;;5.70;2.60;;;;;;;10.02;53.43;97494.31;6349885;28;20699;-58
2024/02/06 14:35:11;;;;;;;8.53;3.33;;;;;;;10.17;53.41;97477.78;6342219;28;20252;-58
2024/02/06 14:38:15;;;;;;;6.03;2.93;;;;;;;9.96;52.88;97493.44;6328987;28;20284;-57
2024/02/06 14:41:17;;;;;;;5.00;2.97;;;;;;;9.77;54.25;97468.13;6327197;28;20345;-56